KRZL

Jasper County Airport

Rensselaer, Indiana, USA
METAR KRZL 161755Z AUTO 00000KT 10SM OVC030 01/M03 A3025 RMK AO2
Observed Flight Rules
Jan-16 @ 17:55 UTC (33 minutes ago) Marginal Visual Flight Rules
Visibility Clouds
10 miles
  • Overcast at 3,000' AGL
Temperatures Readings
Current 1°C / 34°F
Dewpoint -3°C / 27°F
Humidity 75%
Altimeter 30.25" Hg
Pressure 1024.42 hPa
Elevation 213
METAR KRZL 161755Z AUTO 00000KT 10SM OVC030 01/M03 A3025 RMK AO2
Observed Flight Rules
Jan-16 @ 17:55 UTC
(33 minutes ago)
MVFR
Clouds
  • Overcast at 3,000' AGL
Temperature Dewpoint
1°C / 34°F -3°C / 27°F
Humidity Altimeter Pressure
75% 30.25" Hg 1024.42 hPa